createdAt,value
2023-09-04T00:01:58.724Z,17.08
2023-09-04T00:04:26.666Z,17.00
2023-09-04T00:06:54.610Z,16.99
2023-09-04T00:09:23.662Z,16.99
2023-09-04T00:11:51.484Z,16.98
2023-09-04T00:14:19.957Z,16.88
2023-09-04T00:16:47.733Z,16.85
2023-09-04T00:19:15.536Z,16.84
2023-09-04T00:21:43.391Z,16.80
2023-09-04T00:24:11.146Z,16.76
2023-09-04T00:26:39.212Z,16.78
2023-09-04T00:29:06.999Z,16.81
2023-09-04T00:31:34.760Z,16.80
2023-09-04T00:34:02.709Z,16.81
2023-09-04T00:36:30.617Z,16.80
2023-09-04T00:38:58.390Z,16.76
2023-09-04T00:41:26.253Z,16.75
2023-09-04T00:43:54.094Z,16.75
2023-09-04T00:46:22.406Z,16.77
2023-09-04T00:48:51.102Z,16.78
2023-09-04T00:51:19.393Z,16.81
2023-09-04T00:53:48.913Z,16.86
2023-09-04T00:56:17.256Z,16.90
2023-09-04T00:58:45.207Z,16.89
2023-09-04T01:01:13.372Z,16.86
2023-09-04T01:03:42.253Z,16.88
2023-09-04T01:06:10.133Z,16.94
2023-09-04T01:08:38.600Z,17.02
2023-09-04T01:11:33.752Z,17.00
2023-09-04T01:14:11.409Z,16.97
2023-09-04T01:16:40.836Z,16.92
2023-09-04T01:19:12.008Z,16.86
2023-09-04T01:21:40.749Z,16.83
2023-09-04T01:24:10.173Z,16.85
2023-09-04T01:26:46.950Z,16.83
2023-09-04T01:29:29.611Z,16.76
2023-09-04T01:32:04.282Z,16.75
2023-09-04T01:34:37.479Z,16.76
2023-09-04T01:37:05.800Z,16.81
2023-09-04T01:39:34.303Z,16.81
2023-09-04T01:42:02.061Z,16.83
2023-09-04T01:44:30.278Z,16.80
2023-09-04T01:46:58.141Z,16.76
2023-09-04T01:49:25.936Z,16.75
2023-09-04T01:51:54.782Z,16.75
2023-09-04T01:54:22.912Z,16.74
2023-09-04T01:56:50.736Z,16.69
2023-09-04T01:59:18.890Z,16.66
2023-09-04T02:01:46.639Z,16.68
2023-09-04T02:04:14.702Z,16.63
2023-09-04T02:06:42.667Z,16.57
2023-09-04T02:09:10.414Z,16.59
2023-09-04T02:11:38.200Z,16.60
2023-09-04T02:14:06.027Z,16.66
2023-09-04T02:16:33.964Z,16.69
2023-09-04T02:19:02.519Z,16.70
2023-09-04T02:21:30.327Z,16.64
2023-09-04T02:23:58.292Z,16.63
2023-09-04T02:26:26.083Z,16.65
2023-09-04T02:28:53.940Z,16.71
2023-09-04T02:31:21.723Z,16.68
2023-09-04T02:33:49.580Z,16.63
2023-09-04T02:36:17.351Z,16.66
2023-09-04T02:38:45.246Z,16.69
2023-09-04T02:41:13.531Z,16.72
2023-09-04T02:43:42.371Z,16.70
2023-09-04T02:46:10.242Z,16.64
2023-09-04T02:48:38.020Z,16.63
2023-09-04T02:51:05.797Z,16.61
2023-09-04T02:53:34.144Z,16.56
2023-09-04T02:56:02.123Z,16.55
2023-09-04T02:58:29.962Z,16.52
2023-09-04T03:00:58.628Z,16.50
2023-09-04T03:03:26.456Z,16.47
2023-09-04T03:05:54.392Z,16.47
2023-09-04T03:08:22.619Z,16.46
2023-09-04T03:10:51.016Z,16.50
2023-09-04T03:13:18.823Z,16.51
2023-09-04T03:15:46.675Z,16.52
2023-09-04T03:18:14.567Z,16.53
2023-09-04T03:20:43.827Z,16.51
2023-09-04T03:25:58.276Z,16.56
2023-09-04T03:28:26.212Z,16.55
2023-09-04T03:30:54.597Z,16.55
2023-09-04T03:33:23.968Z,16.53
2023-09-04T03:35:51.762Z,16.52
2023-09-04T03:38:20.566Z,16.49
2023-09-04T03:40:48.317Z,16.49
2023-09-04T03:43:16.469Z,16.43
2023-09-04T03:45:44.235Z,16.39
2023-09-04T03:48:12.022Z,16.38
2023-09-04T03:50:40.384Z,16.39
2023-09-04T03:53:08.136Z,16.39
2023-09-04T03:55:35.895Z,16.34
2023-09-04T03:58:04.730Z,16.25
2023-09-04T04:00:32.634Z,16.23
2023-09-04T04:03:03.569Z,16.14
2023-09-04T04:05:31.471Z,16.09
2023-09-04T04:07:59.282Z,16.06
2023-09-04T04:10:27.092Z,16.05
2023-09-04T04:12:55.272Z,16.03
2023-09-04T04:15:23.189Z,16.02
2023-09-04T04:17:51.211Z,16.02
2023-09-04T04:20:19.355Z,15.98
2023-09-04T04:22:47.462Z,15.93
2023-09-04T04:25:15.756Z,15.88
2023-09-04T04:27:45.530Z,15.89
2023-09-04T04:30:14.088Z,15.90
2023-09-04T04:32:42.042Z,15.91
2023-09-04T04:35:10.138Z,15.89
2023-09-04T04:37:38.496Z,15.85
2023-09-04T04:40:09.120Z,15.83
2023-09-04T04:42:38.229Z,15.86
2023-09-04T04:45:08.585Z,15.86
2023-09-04T04:47:36.637Z,15.87
2023-09-04T04:50:06.362Z,15.88
2023-09-04T04:52:35.371Z,15.89
2023-09-04T04:55:03.963Z,15.92
2023-09-04T04:57:34.663Z,15.92
2023-09-04T05:00:08.179Z,15.91
2023-09-04T05:02:36.490Z,15.92
2023-09-04T05:05:05.465Z,15.90
2023-09-04T05:07:33.563Z,15.88
2023-09-04T05:10:01.833Z,15.87
2023-09-04T05:12:29.795Z,15.82
2023-09-04T05:14:57.647Z,15.82
2023-09-04T05:17:25.541Z,15.85
2023-09-04T05:19:53.350Z,15.84
2023-09-04T05:22:21.191Z,15.78
2023-09-04T05:24:49.473Z,15.79
2023-09-04T05:27:21.517Z,15.81
2023-09-04T05:29:49.528Z,15.83
2023-09-04T05:32:17.286Z,15.87
2023-09-04T05:34:45.148Z,15.94
2023-09-04T05:37:13.690Z,15.98
2023-09-04T05:39:41.512Z,16.03
2023-09-04T05:42:09.252Z,16.02
2023-09-04T05:44:37.068Z,15.98
2023-09-04T05:47:05.320Z,16.01
2023-09-04T05:49:33.101Z,16.07
2023-09-04T05:52:00.896Z,16.11
2023-09-04T05:54:29.217Z,16.16
2023-09-04T05:56:56.930Z,16.27
2023-09-04T05:59:25.004Z,16.35
2023-09-04T06:01:52.785Z,16.41
2023-09-04T06:04:22.632Z,16.45
2023-09-04T06:06:53.513Z,16.44
2023-09-04T06:09:21.325Z,16.47
2023-09-04T06:11:49.090Z,16.49
2023-09-04T06:14:16.880Z,16.52
2023-09-04T06:16:44.687Z,16.57
2023-09-04T06:19:12.443Z,16.67
2023-09-04T06:21:40.229Z,16.77
2023-09-04T06:24:07.973Z,16.83
2023-09-04T06:26:35.722Z,16.84
2023-09-04T06:29:03.592Z,16.84
2023-09-04T06:31:32.186Z,16.89
2023-09-04T06:34:00.216Z,16.93
2023-09-04T06:36:28.048Z,16.96
2023-09-04T06:38:56.073Z,17.05
2023-09-04T06:41:25.134Z,17.18
2023-09-04T06:43:52.972Z,17.25
2023-09-04T06:46:20.742Z,17.33
2023-09-04T06:48:48.621Z,17.40
2023-09-04T06:51:17.453Z,17.50
2023-09-04T06:53:46.188Z,17.62
2023-09-04T06:56:14.161Z,17.69
2023-09-04T06:58:42.118Z,17.79
2023-09-04T07:01:10.027Z,17.85
2023-09-04T07:03:37.865Z,17.87
2023-09-04T07:06:05.836Z,17.97
2023-09-04T07:08:33.700Z,18.05
2023-09-04T07:11:01.691Z,18.15
2023-09-04T07:13:29.786Z,18.21
2023-09-04T07:15:57.622Z,18.30
2023-09-04T07:18:25.720Z,18.29
2023-09-04T07:20:53.558Z,18.33
2023-09-04T07:23:29.771Z,18.42
2023-09-04T07:25:58.449Z,18.51
2023-09-04T07:28:26.632Z,18.58
2023-09-04T07:31:19.883Z,18.66
2023-09-04T07:33:49.324Z,18.82
2023-09-04T07:36:18.398Z,18.93
2023-09-04T07:38:47.678Z,19.05
2023-09-04T07:41:15.461Z,19.02
2023-09-04T07:43:43.264Z,18.96
2023-09-04T07:46:11.112Z,18.96
2023-09-04T07:48:39.810Z,18.92
2023-09-04T07:51:23.467Z,18.89
2023-09-04T07:53:55.758Z,18.80
2023-09-04T07:56:25.128Z,18.80
2023-09-04T07:58:54.247Z,18.76
2023-09-04T08:01:22.366Z,18.74
2023-09-04T08:03:50.251Z,18.70
2023-09-04T08:06:18.114Z,18.74
2023-09-04T08:08:45.857Z,18.75
2023-09-04T08:11:13.731Z,18.78
2023-09-04T08:13:41.508Z,18.86
2023-09-04T08:16:10.198Z,18.92
2023-09-04T08:18:38.160Z,18.98
2023-09-04T08:21:05.906Z,19.03
2023-09-04T08:23:33.647Z,19.08
2023-09-04T08:26:03.687Z,19.10
2023-09-04T08:28:31.488Z,19.15
2023-09-04T08:30:59.348Z,19.22
2023-09-04T08:33:27.492Z,19.30
2023-09-04T08:35:56.432Z,19.38
2023-09-04T08:38:24.246Z,19.46
2023-09-04T08:40:52.212Z,19.50
2023-09-04T08:43:20.313Z,19.57
2023-09-04T08:45:48.822Z,19.64
2023-09-04T08:48:21.487Z,19.69
2023-09-04T08:50:50.620Z,19.77
2023-09-04T08:53:18.680Z,19.86
2023-09-04T08:55:46.428Z,19.93
2023-09-04T08:58:15.520Z,20.00
2023-09-04T09:00:48.131Z,20.09
2023-09-04T09:03:17.877Z,20.15
2023-09-04T09:05:48.665Z,20.25
2023-09-04T09:08:17.741Z,20.35
2023-09-04T09:10:47.651Z,20.44
2023-09-04T09:13:16.196Z,20.52
2023-09-04T09:15:44.209Z,20.61
2023-09-04T09:18:12.094Z,20.67
2023-09-04T09:20:43.367Z,20.76
2023-09-04T09:23:11.242Z,20.83
2023-09-04T09:25:40.378Z,20.89
2023-09-04T09:28:09.558Z,20.99
2023-09-04T09:30:41.725Z,21.08
2023-09-04T09:33:17.190Z,21.16
2023-09-04T09:35:45.459Z,21.25
2023-09-04T09:38:13.281Z,21.32
2023-09-04T09:40:41.072Z,21.35
2023-09-04T09:43:09.596Z,21.39
2023-09-04T09:45:37.997Z,21.46
2023-09-04T09:48:08.526Z,21.54
2023-09-04T09:50:38.657Z,21.62
2023-09-04T09:53:06.560Z,21.68
2023-09-04T09:55:36.089Z,21.78
2023-09-04T09:58:05.399Z,21.87
2023-09-04T10:00:35.474Z,21.98
2023-09-04T10:03:04.037Z,22.06
2023-09-04T10:05:33.195Z,22.13
2023-09-04T10:08:03.887Z,22.20
2023-09-04T10:10:41.132Z,22.27
2023-09-04T10:13:20.326Z,22.33
2023-09-04T10:15:48.914Z,22.40
2023-09-04T10:18:33.506Z,22.45
2023-09-04T10:21:06.592Z,22.55
2023-09-04T10:23:46.412Z,22.58
2023-09-04T10:26:27.435Z,22.62
2023-09-04T10:29:18.742Z,22.67
2023-09-04T10:31:49.030Z,22.71
2023-09-04T10:34:17.757Z,22.79
2023-09-04T10:36:45.724Z,22.91
2023-09-04T10:39:14.392Z,23.01
2023-09-04T10:41:42.576Z,23.06
2023-09-04T10:44:13.064Z,23.12
2023-09-04T10:46:59.597Z,23.21
2023-09-04T10:49:35.100Z,23.26
2023-09-04T10:52:03.207Z,23.32
2023-09-04T10:54:30.945Z,23.42
2023-09-04T10:57:19.041Z,23.48
2023-09-04T11:00:05.460Z,23.56
2023-09-04T11:02:35.424Z,23.63
2023-09-04T11:05:07.987Z,23.70
2023-09-04T11:07:36.401Z,23.79
2023-09-04T11:10:34.289Z,23.86
2023-09-04T11:13:02.226Z,23.95
2023-09-04T11:15:33.185Z,24.02
2023-09-04T11:18:01.036Z,24.11
2023-09-04T11:20:29.201Z,24.24
2023-09-04T11:22:57.975Z,24.32
2023-09-04T11:25:25.904Z,24.40
2023-09-04T11:27:53.845Z,24.50
2023-09-04T11:30:30.195Z,24.57
2023-09-04T11:33:01.000Z,24.65
2023-09-04T11:35:29.504Z,24.74
2023-09-04T11:38:01.348Z,24.81
2023-09-04T11:40:33.427Z,24.91
2023-09-04T11:43:01.207Z,25.03
2023-09-04T11:45:29.340Z,25.10
2023-09-04T11:47:57.197Z,25.20
2023-09-04T11:50:25.057Z,25.30
2023-09-04T11:52:53.722Z,25.42
2023-09-04T11:55:24.256Z,25.54
2023-09-04T11:57:52.051Z,25.62
2023-09-04T12:00:19.896Z,25.70
2023-09-04T12:02:47.741Z,25.75
2023-09-04T12:05:15.726Z,25.85
2023-09-04T12:07:43.673Z,25.95
2023-09-04T12:10:11.977Z,26.04
2023-09-04T12:12:40.219Z,26.11
2023-09-04T12:15:08.289Z,26.20
2023-09-04T12:17:36.251Z,26.32
2023-09-04T12:20:07.024Z,26.39
2023-09-04T12:22:34.912Z,26.47
2023-09-04T12:25:11.692Z,26.57
2023-09-04T12:27:42.757Z,26.63
2023-09-04T12:30:12.404Z,26.71
2023-09-04T12:32:40.418Z,26.84
2023-09-04T12:35:10.318Z,26.95
2023-09-04T12:37:38.380Z,27.06
2023-09-04T12:40:09.569Z,27.20
2023-09-04T12:42:39.301Z,27.31
2023-09-04T12:45:08.524Z,27.40
2023-09-04T12:47:37.026Z,27.51
2023-09-04T12:50:05.809Z,27.59
2023-09-04T12:52:35.098Z,27.72
2023-09-04T12:55:04.290Z,27.87
2023-09-04T12:57:32.093Z,28.04
2023-09-04T12:59:59.826Z,28.15
2023-09-04T13:02:27.662Z,28.25
2023-09-04T13:04:55.699Z,28.37
2023-09-04T13:07:25.121Z,28.47
2023-09-04T13:09:52.958Z,28.57
2023-09-04T13:12:21.001Z,28.67
2023-09-04T13:14:48.776Z,28.82
2023-09-04T13:17:16.551Z,28.89
2023-09-04T13:19:44.422Z,28.92
2023-09-04T13:22:12.300Z,28.95
2023-09-04T13:24:40.120Z,29.01
2023-09-04T13:27:10.204Z,29.06
2023-09-04T13:29:37.978Z,29.09
2023-09-04T13:32:05.998Z,29.10
2023-09-04T13:34:33.768Z,29.13
2023-09-04T13:37:01.513Z,29.12
2023-09-04T13:39:29.404Z,29.11
2023-09-04T13:41:57.303Z,29.10
2023-09-04T13:44:26.528Z,29.08
2023-09-04T13:46:54.486Z,29.09
2023-09-04T13:49:22.364Z,29.10
2023-09-04T13:51:50.146Z,29.09
2023-09-04T13:54:18.230Z,29.07
2023-09-04T13:56:46.248Z,29.01
2023-09-04T13:59:13.992Z,28.98
2023-09-04T14:01:43.655Z,28.96
2023-09-04T14:04:11.669Z,28.93
2023-09-04T14:06:39.586Z,28.92
2023-09-04T14:09:07.340Z,28.92
2023-09-04T14:11:35.661Z,28.94
2023-09-04T14:14:03.537Z,28.92
2023-09-04T14:16:31.403Z,28.92
2023-09-04T14:19:04.550Z,28.92
2023-09-04T14:21:35.990Z,28.89
2023-09-04T14:24:03.982Z,28.84
2023-09-04T14:26:31.777Z,28.85
2023-09-04T14:28:59.612Z,28.85
2023-09-04T14:31:30.379Z,28.85
2023-09-04T14:33:58.304Z,28.81
2023-09-04T14:36:26.105Z,28.80
2023-09-04T14:38:54.054Z,28.78
2023-09-04T14:41:32.807Z,28.73
2023-09-04T14:44:00.994Z,28.72
2023-09-04T14:46:31.702Z,28.71
2023-09-04T14:48:59.456Z,28.66
2023-09-04T14:51:27.362Z,28.67
2023-09-04T14:53:55.916Z,28.64
2023-09-04T14:56:28.893Z,28.65
2023-09-04T14:58:58.402Z,28.65
2023-09-04T15:01:26.256Z,28.66
2023-09-04T15:03:54.166Z,28.67
2023-09-04T15:06:21.952Z,28.67
2023-09-04T15:08:50.367Z,28.67
2023-09-04T15:11:18.186Z,28.70
2023-09-04T15:13:46.239Z,28.69
2023-09-04T15:16:14.343Z,28.68
2023-09-04T15:18:43.196Z,28.68
2023-09-04T15:21:11.206Z,28.68
2023-09-04T15:23:39.160Z,28.66
2023-09-04T15:26:07.006Z,28.65
2023-09-04T15:28:34.899Z,28.67
2023-09-04T15:31:02.851Z,28.70
2023-09-04T15:33:30.755Z,28.69
2023-09-04T15:36:00.849Z,28.70
2023-09-04T15:38:30.776Z,28.70
2023-09-04T15:40:58.693Z,28.69
2023-09-04T15:43:26.532Z,28.64
2023-09-04T15:45:55.022Z,28.64
2023-09-04T15:48:23.158Z,28.63
2023-09-04T15:50:51.523Z,28.59
2023-09-04T15:53:24.506Z,28.58
2023-09-04T15:55:56.489Z,28.56
2023-09-04T15:58:26.609Z,28.53
2023-09-04T16:00:54.811Z,28.52
2023-09-04T16:03:22.870Z,28.56
2023-09-04T16:05:50.706Z,28.57
2023-09-04T16:08:19.382Z,28.56
2023-09-04T16:10:49.040Z,28.53
2023-09-04T16:13:25.333Z,28.51
2023-09-04T16:15:55.608Z,28.48
2023-09-04T16:18:24.214Z,28.43
2023-09-04T16:20:52.515Z,28.41
2023-09-04T16:23:21.400Z,28.36
2023-09-04T16:25:58.926Z,28.31
2023-09-04T16:28:27.843Z,28.26
2023-09-04T16:30:57.093Z,28.21
2023-09-04T16:33:27.858Z,28.22
2023-09-04T16:35:55.903Z,28.19
2023-09-04T16:38:24.681Z,28.17
2023-09-04T16:40:52.746Z,28.13
2023-09-04T16:43:20.811Z,28.06
2023-09-04T16:45:48.716Z,28.00
2023-09-04T16:48:16.465Z,27.94
2023-09-04T16:50:44.360Z,27.88
2023-09-04T16:53:12.163Z,27.81
2023-09-04T16:55:40.010Z,27.72
2023-09-04T16:58:07.867Z,27.63
2023-09-04T17:00:36.506Z,27.56
2023-09-04T17:03:04.838Z,27.52
2023-09-04T17:05:32.797Z,27.45
2023-09-04T17:08:00.535Z,27.36
2023-09-04T17:10:28.362Z,27.26
2023-09-04T17:12:56.290Z,27.19
2023-09-04T17:15:24.122Z,27.12
2023-09-04T17:17:51.973Z,27.07
2023-09-04T17:20:19.842Z,27.02
2023-09-04T17:22:47.645Z,26.95
2023-09-04T17:25:15.545Z,26.87
2023-09-04T17:27:43.377Z,26.78
2023-09-04T17:30:11.542Z,26.66
2023-09-04T17:32:39.631Z,26.54
2023-09-04T17:35:11.563Z,26.47
2023-09-04T17:37:39.559Z,26.35
2023-09-04T17:40:08.925Z,26.22
2023-09-04T17:42:36.679Z,26.08
2023-09-04T17:45:05.232Z,25.89
2023-09-04T17:47:33.760Z,25.75
2023-09-04T17:50:01.647Z,25.61
2023-09-04T17:52:32.378Z,25.48
2023-09-04T17:55:00.156Z,25.38
2023-09-04T17:57:28.336Z,25.25
2023-09-04T17:59:56.149Z,25.07
2023-09-04T18:02:23.999Z,24.92
2023-09-04T18:04:52.092Z,24.77
2023-09-04T18:07:19.883Z,24.67
2023-09-04T18:09:47.670Z,24.58
2023-09-04T18:12:15.397Z,24.45
2023-09-04T18:14:43.171Z,24.33
2023-09-04T18:17:10.914Z,24.24
2023-09-04T18:19:38.713Z,24.14
2023-09-04T18:22:06.635Z,23.95
2023-09-04T18:24:34.462Z,23.77
2023-09-04T18:27:04.362Z,23.65
2023-09-04T18:29:32.173Z,23.53
2023-09-04T18:32:00.077Z,23.40
2023-09-04T18:34:27.961Z,23.25
2023-09-04T18:36:56.151Z,23.13
2023-09-04T18:39:23.980Z,23.05
2023-09-04T18:41:51.863Z,22.94
2023-09-04T18:44:20.534Z,22.81
2023-09-04T18:46:48.751Z,22.62
2023-09-04T18:49:16.572Z,22.44
2023-09-04T18:51:44.329Z,22.30
2023-09-04T18:54:12.153Z,22.14
2023-09-04T18:56:40.776Z,22.02
2023-09-04T18:59:09.354Z,21.91
2023-09-04T19:01:39.919Z,21.84
2023-09-04T19:04:07.687Z,21.80
2023-09-04T19:06:36.204Z,21.72
2023-09-04T19:09:04.309Z,21.64
2023-09-04T19:11:32.045Z,21.54
2023-09-04T19:13:59.838Z,21.50
2023-09-04T19:16:28.420Z,21.44
2023-09-04T19:18:56.341Z,21.35
2023-09-04T19:21:25.450Z,21.27
2023-09-04T19:23:53.345Z,21.20
2023-09-04T19:26:21.209Z,21.16
2023-09-04T19:28:51.648Z,21.09
2023-09-04T19:31:21.238Z,21.03
2023-09-04T19:33:51.025Z,20.96
2023-09-04T19:36:19.468Z,20.90
2023-09-04T19:38:47.284Z,20.84
2023-09-04T19:41:15.158Z,20.78
2023-09-04T19:43:42.914Z,20.75
2023-09-04T19:46:10.752Z,20.67
2023-09-04T19:48:38.597Z,20.61
2023-09-04T19:51:06.409Z,20.58
2023-09-04T19:53:34.330Z,20.53
2023-09-04T19:56:02.174Z,20.44
2023-09-04T19:58:29.971Z,20.37
2023-09-04T20:00:59.468Z,20.27
2023-09-04T20:03:27.541Z,20.22
2023-09-04T20:05:55.946Z,20.13
2023-09-04T20:08:23.885Z,20.06
2023-09-04T20:10:51.757Z,19.99
2023-09-04T20:13:19.687Z,19.90
2023-09-04T20:15:47.660Z,19.81
2023-09-04T20:18:15.472Z,19.73
2023-09-04T20:20:43.263Z,19.72
2023-09-04T20:23:11.079Z,19.67
2023-09-04T20:25:38.975Z,19.61
2023-09-04T20:28:07.226Z,19.56
2023-09-04T20:30:35.125Z,19.51
2023-09-04T20:33:04.032Z,19.46
2023-09-04T20:35:32.501Z,19.43
2023-09-04T20:38:00.286Z,19.42
2023-09-04T20:40:29.782Z,19.33
2023-09-04T20:42:57.782Z,19.23
2023-09-04T20:45:25.636Z,19.19
2023-09-04T20:47:53.613Z,19.14
2023-09-04T20:50:21.662Z,19.07
2023-09-04T20:52:49.467Z,19.02
2023-09-04T20:55:17.408Z,19.01
2023-09-04T20:57:45.181Z,18.95
2023-09-04T21:00:14.358Z,18.90
2023-09-04T21:02:43.292Z,18.89
2023-09-04T21:05:11.172Z,18.87
2023-09-04T21:07:38.827Z,18.82
2023-09-04T21:10:07.964Z,18.77
2023-09-04T21:12:54.834Z,18.73
2023-09-04T21:15:41.724Z,18.68
2023-09-04T21:18:28.342Z,18.69
2023-09-04T21:21:14.584Z,18.73
2023-09-04T21:24:00.936Z,18.70
2023-09-04T21:26:47.346Z,18.62
2023-09-04T21:29:33.631Z,18.58
2023-09-04T21:32:19.815Z,18.55
2023-09-04T21:35:07.180Z,18.46
2023-09-04T21:37:53.921Z,18.39
2023-09-04T21:40:40.247Z,18.35
2023-09-04T21:43:26.671Z,18.29
2023-09-04T21:46:13.546Z,18.25
2023-09-04T21:48:59.767Z,18.20
2023-09-04T21:51:46.173Z,18.16
2023-09-04T21:54:32.479Z,18.10
2023-09-04T21:57:18.808Z,18.02
2023-09-04T22:00:05.095Z,17.98
2023-09-04T22:02:52.068Z,17.94
2023-09-04T22:05:38.469Z,17.91
2023-09-04T22:08:24.851Z,17.84
2023-09-04T22:11:10.956Z,17.75
2023-09-04T22:13:57.228Z,17.68
2023-09-04T22:16:59.184Z,17.66
2023-09-04T22:19:49.780Z,17.65
2023-09-04T22:22:36.041Z,17.65
2023-09-04T22:25:22.901Z,17.66
2023-09-04T22:28:09.290Z,17.64
2023-09-04T22:30:56.640Z,17.64
2023-09-04T22:33:43.068Z,17.57
2023-09-04T22:36:29.469Z,17.55
2023-09-04T22:39:15.845Z,17.45
2023-09-04T22:42:02.352Z,17.44
2023-09-04T22:44:48.941Z,17.42
2023-09-04T22:47:35.365Z,17.31
2023-09-04T22:50:21.738Z,17.19
2023-09-04T22:53:08.473Z,17.15
2023-09-04T22:55:55.212Z,17.14
2023-09-04T22:58:41.796Z,17.09
2023-09-04T23:01:30.049Z,17.06
2023-09-04T23:04:16.268Z,17.03
2023-09-04T23:07:03.201Z,16.97
2023-09-04T23:09:49.805Z,16.99
2023-09-04T23:12:36.202Z,16.99
2023-09-04T23:15:23.589Z,16.98
2023-09-04T23:18:09.849Z,16.95
2023-09-04T23:20:56.140Z,16.93
2023-09-04T23:23:25.357Z,16.86
2023-09-04T23:25:54.968Z,16.80
2023-09-04T23:28:23.719Z,16.75
2023-09-04T23:30:56.382Z,16.68
2023-09-04T23:33:39.018Z,16.70
2023-09-04T23:36:36.613Z,16.67
2023-09-04T23:39:20.448Z,16.67
2023-09-04T23:42:06.923Z,16.62
2023-09-04T23:44:53.315Z,16.55
2023-09-04T23:47:22.393Z,16.46
2023-09-04T23:49:52.029Z,16.35
2023-09-04T23:52:19.840Z,16.31
2023-09-04T23:54:47.597Z,16.33
2023-09-04T23:57:15.827Z,16.35
2023-09-04T23:59:43.606Z,16.36
